AU-0110 weather

Murgenella Airstrip
Murganella, Northern Territory, Australia

Public forecast

Using degrees Celsius for public forecast. Weather courtesy of forecast.io.

Closest aviation weather report (METAR) to Murgenella Airstrip

Closest report is Darwin International Airport, 130.4 nm (241.6 km) WSW. Retrieved 2020/06/01 05:00 UTC (29 minutes ago):

YPDN 010500Z 33009KT 9999 FEW041 30/22 Q1012 NOSIG

Closest aviation forecast (TAF) to Murgenella Airstrip

Closest forecast is Darwin International Airport, 130.4 nm (241.6 km) WSW. Retrieved 2020-06-01 00:00 UTC (5 hours ago):

TAF YPDN 312327Z 0100/0206 08010KT CAVOK FM010400 33008KT CAVOK FM011200 VRB03KT 9999 FEW020 FM012300 11012KT CAVOK FM020400 07010KT CAVOK